createdAt,value
2016-02-12T00:00:24.130Z,0
2016-02-12T00:01:24.226Z,0
2016-02-12T00:02:24.245Z,0
2016-02-12T00:03:24.279Z,0
2016-02-12T00:04:24.173Z,0
2016-02-12T00:05:24.426Z,0
2016-02-12T00:06:24.459Z,0
2016-02-12T00:07:24.509Z,0
2016-02-12T00:08:24.528Z,0
2016-02-12T00:09:24.609Z,0
2016-02-12T00:10:24.643Z,0
2016-02-12T00:11:24.717Z,0
2016-02-12T00:12:24.768Z,0
2016-02-12T00:13:24.817Z,0
2016-02-12T00:14:24.867Z,0
2016-02-12T00:15:24.789Z,0
2016-02-12T00:16:24.978Z,0
2016-02-12T00:17:25.029Z,0
2016-02-12T00:18:25.078Z,0
2016-02-12T00:19:25.143Z,0
2016-02-12T00:20:25.194Z,0
2016-02-12T00:21:25.259Z,0
2016-02-12T00:22:25.309Z,0
2016-02-12T00:23:25.342Z,0
2016-02-12T00:24:25.413Z,0
2016-02-12T00:25:25.420Z,0
2016-02-12T00:26:25.488Z,0
2016-02-12T00:27:25.510Z,0
2016-02-12T00:28:25.560Z,0
2016-02-12T00:29:25.619Z,0
2016-02-12T00:30:25.649Z,0
2016-02-12T00:31:25.725Z,0
2016-02-12T00:32:25.006Z,0
2016-02-12T00:33:25.816Z,0
2016-02-12T00:34:25.849Z,0
2016-02-12T00:35:25.897Z,0
2016-02-12T00:36:26.008Z,0
2016-02-12T00:37:25.997Z,0
2016-02-12T00:38:25.904Z,0
2016-02-12T00:39:26.125Z,0
2016-02-12T00:40:26.157Z,0
2016-02-12T00:41:26.254Z,0
2016-02-12T00:42:26.284Z,0
2016-02-12T00:43:26.318Z,0
2016-02-12T00:44:26.382Z,0
2016-02-12T00:45:26.433Z,0
2016-02-12T00:46:26.482Z,0
2016-02-12T00:47:26.531Z,0
2016-02-12T00:48:26.611Z,0
2016-02-12T00:49:26.629Z,0
2016-02-12T00:50:26.695Z,0
2016-02-12T00:51:26.745Z,0
2016-02-12T00:52:26.809Z,0
2016-02-12T00:53:26.859Z,0
2016-02-12T00:54:26.910Z,0
2016-02-12T00:55:26.959Z,0
2016-02-12T00:56:27.024Z,0
2016-02-12T00:57:27.059Z,0
2016-02-12T00:58:27.123Z,0
2016-02-12T00:59:27.190Z,0
2016-02-12T01:00:27.254Z,0
2016-02-12T01:01:27.288Z,0
2016-02-12T01:02:27.369Z,0
2016-02-12T01:03:27.396Z,0
2016-02-12T01:04:27.477Z,0
2016-02-12T01:05:27.495Z,0
2016-02-12T01:06:27.560Z,0
2016-02-12T01:07:27.610Z,0
2016-02-12T01:08:27.659Z,0
2016-02-12T01:09:27.709Z,0
2016-02-12T01:10:27.790Z,0
2016-02-12T01:11:27.826Z,0
2016-02-12T01:12:27.860Z,0
2016-02-12T01:13:27.960Z,0
2016-02-12T01:14:27.979Z,0
2016-02-12T01:15:28.044Z,0
2016-02-12T01:16:28.077Z,0
2016-02-12T01:17:28.143Z,0
2016-02-12T01:18:28.192Z,0
2016-02-12T01:19:28.257Z,0
2016-02-12T01:20:28.292Z,0
2016-02-12T01:21:28.357Z,0
2016-02-12T01:22:28.407Z,0
2016-02-12T01:23:28.472Z,0
2016-02-12T01:24:28.507Z,0
2016-02-12T01:25:28.571Z,0
2016-02-12T01:26:28.621Z,0
2016-02-12T01:27:28.670Z,0
2016-02-12T01:28:28.735Z,0
2016-02-12T01:29:28.785Z,0
2016-02-12T01:30:28.835Z,0
2016-02-12T01:31:28.916Z,0
2016-02-12T01:32:28.950Z,0
2016-02-12T01:33:29.000Z,0
2016-02-12T01:34:29.049Z,0
2016-02-12T01:35:29.131Z,0
2016-02-12T01:36:29.166Z,0
2016-02-12T01:37:29.230Z,0
2016-02-12T01:38:29.264Z,0
2016-02-12T01:39:29.330Z,0
2016-02-12T01:40:29.367Z,0
2016-02-12T01:41:29.463Z,0
2016-02-12T01:42:29.466Z,0
2016-02-12T01:43:29.565Z,0
2016-02-12T01:44:29.614Z,0
2016-02-12T01:45:29.649Z,0
2016-02-12T01:46:29.714Z,0
2016-02-12T01:47:29.748Z,0
2016-02-12T01:48:29.814Z,0
2016-02-12T01:49:29.848Z,0
2016-02-12T01:50:29.897Z,0
2016-02-12T01:51:29.994Z,0
2016-02-12T01:52:30.028Z,0
2016-02-12T01:53:30.077Z,0
2016-02-12T01:54:30.127Z,0
2016-02-12T01:55:30.177Z,0
2016-02-12T01:56:30.241Z,0
2016-02-12T01:57:30.276Z,0
2016-02-12T01:58:30.357Z,0
2016-02-12T01:59:30.406Z,0
2016-02-12T02:00:30.441Z,0
2016-02-12T02:01:30.506Z,0
2016-02-12T02:02:30.555Z,0
2016-02-12T02:03:30.620Z,0
2016-02-12T02:04:30.654Z,0
2016-02-12T02:05:30.736Z,0
2016-02-12T02:06:30.786Z,0
2016-02-12T02:07:30.820Z,0
2016-02-12T02:08:30.870Z,0
2016-02-12T02:09:30.934Z,0
2016-02-12T02:10:30.984Z,0
2016-02-12T02:11:31.034Z,0
2016-02-12T02:12:31.114Z,0
2016-02-12T02:13:31.165Z,0
2016-02-12T02:14:31.200Z,0
2016-02-12T02:15:31.266Z,0
2016-02-12T02:16:31.330Z,0
2016-02-12T02:17:31.380Z,0
2016-02-12T02:18:31.413Z,0
2016-02-12T02:19:31.510Z,0
2016-02-12T02:20:31.529Z,0
2016-02-12T02:21:31.579Z,0
2016-02-12T02:22:31.627Z,0
2016-02-12T02:23:31.740Z,0
2016-02-12T02:24:31.743Z,0
2016-02-12T02:25:31.792Z,0
2016-02-12T02:26:31.842Z,0
2016-02-12T02:27:31.938Z,0
2016-02-12T02:28:31.940Z,0
2016-02-12T02:29:31.990Z,0
2016-02-12T02:30:32.087Z,0
2016-02-12T02:31:32.106Z,0
2016-02-12T02:32:32.139Z,0
2016-02-12T02:33:32.236Z,0
2016-02-12T02:34:32.285Z,0
2016-02-12T02:35:32.366Z,0
2016-02-12T02:36:32.369Z,0
2016-02-12T02:37:32.434Z,0
2016-02-12T02:38:32.499Z,0
2016-02-12T02:39:32.533Z,0
2016-02-12T02:40:32.599Z,0
2016-02-12T02:41:32.664Z,0
2016-02-12T02:42:32.685Z,0
2016-02-12T02:43:32.736Z,0
2016-02-12T02:44:32.816Z,0
2016-02-12T02:45:32.897Z,0
2016-02-12T02:46:32.916Z,0
2016-02-12T02:47:32.965Z,0
2016-02-12T02:48:33.017Z,0
2016-02-12T02:49:33.082Z,0
2016-02-12T02:50:33.117Z,0
2016-02-12T02:51:33.182Z,0
2016-02-12T02:52:33.247Z,0
2016-02-12T02:53:33.282Z,0
2016-02-12T02:54:33.331Z,0
2016-02-12T02:55:33.381Z,0
2016-02-12T02:56:33.446Z,0
2016-02-12T02:57:33.479Z,0
2016-02-12T02:58:33.545Z,0
2016-02-12T02:59:33.610Z,0
2016-02-12T03:00:33.661Z,0
2016-02-12T03:01:33.711Z,0
2016-02-12T03:02:33.745Z,0
2016-02-12T03:03:33.810Z,0
2016-02-12T03:04:33.578Z,0
2016-02-12T03:05:33.925Z,0
2016-02-12T03:06:33.975Z,0
2016-02-12T03:07:34.071Z,0
2016-02-12T03:08:34.076Z,0
2016-02-12T03:09:33.376Z,0
2016-02-12T03:10:34.190Z,0
2016-02-12T03:11:34.073Z,0
2016-02-12T03:12:34.279Z,0
2016-02-12T03:13:34.344Z,0
2016-02-12T03:14:34.410Z,0
2016-02-12T03:15:34.460Z,0
2016-02-12T03:16:34.493Z,0
2016-02-12T03:17:34.544Z,0
2016-02-12T03:18:34.625Z,0
2016-02-12T03:19:34.659Z,0
2016-02-12T03:20:34.724Z,0
2016-02-12T03:21:34.805Z,0
2016-02-12T03:22:34.808Z,0
2016-02-12T03:23:34.857Z,0
2016-02-12T03:24:34.938Z,0
2016-02-12T03:25:35.003Z,0
2016-02-12T03:26:35.037Z,0
2016-02-12T03:27:35.056Z,0
2016-02-12T03:28:35.121Z,0
2016-02-12T03:29:35.217Z,0
2016-02-12T03:30:35.251Z,0
2016-02-12T03:31:35.285Z,0
2016-02-12T03:32:35.350Z,0
2016-02-12T03:33:35.415Z,0
2016-02-12T03:34:35.419Z,0
2016-02-12T03:35:35.516Z,0
2016-02-12T03:36:35.565Z,0
2016-02-12T03:37:35.600Z,0
2016-02-12T03:38:35.665Z,0
2016-02-12T03:39:35.730Z,0
2016-02-12T03:40:35.780Z,0
2016-02-12T03:41:35.845Z,0
2016-02-12T03:42:35.863Z,0
2016-02-12T03:43:35.933Z,0
2016-02-12T03:44:35.982Z,0
2016-02-12T03:45:36.016Z,0
2016-02-12T03:46:36.081Z,0
2016-02-12T03:47:36.146Z,0
2016-02-12T03:48:36.195Z,0
2016-02-12T03:49:36.261Z,0
2016-02-12T03:50:36.341Z,0
2016-02-12T03:51:36.361Z,0
2016-02-12T03:52:36.394Z,0
2016-02-12T03:53:36.459Z,0
2016-02-12T03:54:36.525Z,0
2016-02-12T03:55:36.575Z,0
2016-02-12T03:56:36.640Z,0
2016-02-12T03:57:36.705Z,0
2016-02-12T03:58:36.708Z,0
2016-02-12T03:59:36.773Z,0
2016-02-12T04:00:36.853Z,0
2016-02-12T04:01:36.888Z,0
2016-02-12T04:02:36.936Z,0
2016-02-12T04:03:37.003Z,0
2016-02-12T04:04:37.022Z,0
2016-02-12T04:05:37.086Z,0
2016-02-12T04:06:37.136Z,0
2016-02-12T04:07:37.201Z,0
2016-02-12T04:08:37.297Z,0
2016-02-12T04:09:37.300Z,0
2016-02-12T04:10:37.350Z,0
2016-02-12T04:11:37.433Z,0
2016-02-12T04:12:37.455Z,0
2016-02-12T04:13:37.505Z,0
2016-02-12T04:14:37.601Z,0
2016-02-12T04:15:37.636Z,0
2016-02-12T04:16:37.653Z,0
2016-02-12T04:17:37.767Z,0
2016-02-12T04:18:37.800Z,0
2016-02-12T04:19:37.850Z,0
2016-02-12T04:20:37.870Z,0
2016-02-12T04:21:37.935Z,0
2016-02-12T04:22:38.016Z,0
2016-02-12T04:23:38.050Z,0
2016-02-12T04:24:38.083Z,0
2016-02-12T04:25:38.196Z,0
2016-02-12T04:26:38.230Z,0
2016-02-12T04:27:38.263Z,0
2016-02-12T04:28:38.331Z,0
2016-02-12T04:29:38.380Z,0
2016-02-12T04:30:38.415Z,0
2016-02-12T04:31:38.464Z,0
2016-02-12T04:32:38.513Z,0
2016-02-12T04:33:38.595Z,0
2016-02-12T04:34:38.628Z,0
2016-02-12T04:35:38.678Z,0
2016-02-12T04:36:38.743Z,0
2016-02-12T04:37:38.809Z,0
2016-02-12T04:38:38.827Z,0
2016-02-12T04:39:38.909Z,0
2016-02-12T04:40:38.960Z,0
2016-02-12T04:41:38.978Z,0
2016-02-12T04:42:39.060Z,0
2016-02-12T04:43:39.109Z,0
2016-02-12T04:44:39.174Z,0
2016-02-12T04:45:39.239Z,0
2016-02-12T04:46:39.260Z,0
2016-02-12T04:47:39.324Z,0
2016-02-12T04:48:39.391Z,0
2016-02-12T04:49:39.408Z,0
2016-02-12T04:50:39.474Z,0
2016-02-12T04:51:39.555Z,0
2016-02-12T04:52:39.589Z,0
2016-02-12T04:53:39.638Z,0
2016-02-12T04:54:39.719Z,0
2016-02-12T04:55:39.737Z,0
2016-02-12T04:56:39.819Z,0
2016-02-12T04:57:39.852Z,0
2016-02-12T04:58:39.901Z,0
2016-02-12T04:59:39.966Z,0
2016-02-12T05:00:39.985Z,0
2016-02-12T05:01:40.066Z,0
2016-02-12T05:02:40.147Z,0
2016-02-12T05:03:40.149Z,0
2016-02-12T05:04:40.199Z,0
2016-02-12T05:05:40.279Z,0
2016-02-12T05:06:40.331Z,0
2016-02-12T05:07:40.364Z,0
2016-02-12T05:08:40.460Z,0
2016-02-12T05:09:40.494Z,0
2016-02-12T05:10:40.560Z,0
2016-02-12T05:11:40.567Z,0
2016-02-12T05:12:40.633Z,0
2016-02-12T05:13:40.729Z,0
2016-02-12T05:14:40.763Z,0
2016-02-12T05:15:40.797Z,0
2016-02-12T05:16:40.893Z,0
2016-02-12T05:17:40.928Z,0
2016-02-12T05:18:40.962Z,0
2016-02-12T05:19:41.027Z,0
2016-02-12T05:20:41.093Z,0
2016-02-12T05:21:41.110Z,0
2016-02-12T05:22:41.193Z,0
2016-02-12T05:23:41.227Z,0
2016-02-12T05:24:41.308Z,0
2016-02-12T05:25:41.358Z,0
2016-02-12T05:26:41.360Z,0
2016-02-12T05:27:41.440Z,0
2016-02-12T05:28:41.506Z,0
2016-02-12T05:29:41.524Z,0
2016-02-12T05:30:41.589Z,0
2016-02-12T05:31:41.670Z,0
2016-02-12T05:32:41.688Z,0
2016-02-12T05:33:41.738Z,0
2016-02-12T05:34:41.835Z,0
2016-02-12T05:35:41.853Z,0
2016-02-12T05:36:41.887Z,0
2016-02-12T05:37:42.014Z,0
2016-02-12T05:38:42.018Z,0
2016-02-12T05:39:42.051Z,0
2016-02-12T05:40:42.138Z,0
2016-02-12T05:41:42.188Z,0
2016-02-12T05:42:42.205Z,0
2016-02-12T05:43:42.304Z,0
2016-02-12T05:44:41.603Z,0
2016-02-12T05:45:42.356Z,0
2016-02-12T05:46:42.437Z,0
2016-02-12T05:47:42.502Z,0
2016-02-12T05:48:42.412Z,0
2016-02-12T05:49:42.618Z,0
2016-02-12T05:50:42.636Z,0
2016-02-12T05:51:42.733Z,0
2016-02-12T05:52:42.782Z,0
2016-02-12T05:53:42.785Z,0
2016-02-12T05:54:42.850Z,0
2016-02-12T05:55:42.962Z,0
2016-02-12T05:56:42.950Z,0
2016-02-12T05:57:43.017Z,0
2016-02-12T05:58:43.098Z,0
2016-02-12T05:59:43.164Z,0
2016-02-12T06:00:43.200Z,0
2016-02-12T06:01:43.218Z,0
2016-02-12T06:02:43.284Z,0
2016-02-12T06:03:43.348Z,8
2016-02-12T06:04:43.383Z,8
2016-02-12T06:05:43.448Z,0
2016-02-12T06:06:43.529Z,0
2016-02-12T06:07:43.563Z,0
2016-02-12T06:08:43.628Z,0
2016-02-12T06:09:43.678Z,0
2016-02-12T06:10:43.715Z,0
2016-02-12T06:11:43.734Z,0
2016-02-12T06:12:43.830Z,0
2016-02-12T06:13:43.864Z,0
2016-02-12T06:14:43.945Z,0
2016-02-12T06:15:43.995Z,0
2016-02-12T06:16:44.028Z,0
2016-02-12T06:17:44.094Z,0
2016-02-12T06:18:44.129Z,0
2016-02-12T06:19:44.178Z,0
2016-02-12T06:20:44.259Z,0
2016-02-12T06:21:44.339Z,0
2016-02-12T06:22:44.327Z,0
2016-02-12T06:23:44.407Z,0
2016-02-12T06:24:44.473Z,0
2016-02-12T06:25:44.491Z,0
2016-02-12T06:26:44.572Z,0
2016-02-12T06:27:44.622Z,0
2016-02-12T06:28:44.641Z,0
2016-02-12T06:29:44.690Z,0
2016-02-12T06:30:44.787Z,0
2016-02-12T06:31:44.821Z,0
2016-02-12T06:32:44.855Z,0
2016-02-12T06:33:44.966Z,0
2016-02-12T06:34:45.018Z,0
2016-02-12T06:35:45.021Z,0
2016-02-12T06:36:45.102Z,0
2016-02-12T06:37:45.151Z,0
2016-02-12T06:38:45.186Z,0
2016-02-12T06:39:45.235Z,0
2016-02-12T06:40:45.270Z,0
2016-02-12T06:41:45.382Z,0
2016-02-12T06:42:45.400Z,0
2016-02-12T06:43:45.437Z,0
2016-02-12T06:44:45.517Z,0
2016-02-12T06:45:45.568Z,0
2016-02-12T06:46:45.585Z,0
2016-02-12T06:47:45.667Z,0
2016-02-12T06:48:45.763Z,0
2016-02-12T06:49:45.781Z,0
2016-02-12T06:50:45.815Z,0
2016-02-12T06:51:45.867Z,0
2016-02-12T06:52:45.947Z,0
2016-02-12T06:53:45.996Z,0
2016-02-12T06:54:46.030Z,0
2016-02-12T06:55:46.111Z,0
2016-02-12T06:56:46.161Z,0
2016-02-12T06:57:46.196Z,0
2016-02-12T06:58:46.244Z,0
2016-02-12T06:59:46.310Z,0
2016-02-12T07:00:46.329Z,0
2016-02-12T07:01:46.395Z,0
2016-02-12T07:02:46.491Z,0
2016-02-12T07:03:46.509Z,0
2016-02-12T07:04:46.637Z,0
2016-02-12T07:05:46.594Z,0
2016-02-12T07:06:46.659Z,0
2016-02-12T07:07:46.740Z,0
2016-02-12T07:08:46.773Z,0
2016-02-12T07:09:46.840Z,0
2016-02-12T07:10:46.904Z,0
2016-02-12T07:11:46.927Z,0
2016-02-12T07:12:46.977Z,0
2016-02-12T07:13:47.057Z,0
2016-02-12T07:14:47.092Z,0
2016-02-12T07:15:47.141Z,0
2016-02-12T07:16:47.237Z,0
2016-02-12T07:17:47.288Z,0
2016-02-12T07:18:47.290Z,0
2016-02-12T07:19:47.386Z,0
2016-02-12T07:20:47.435Z,0
2016-02-12T07:21:47.438Z,0
2016-02-12T07:22:47.519Z,0
2016-02-12T07:23:47.600Z,0
2016-02-12T07:24:47.603Z,0
2016-02-12T07:25:47.668Z,0
2016-02-12T07:26:47.764Z,0
2016-02-12T07:27:47.768Z,0
2016-02-12T07:28:47.660Z,4
2016-02-12T07:29:47.898Z,4
2016-02-12T07:30:47.947Z,4
2016-02-12T07:31:48.012Z,0
2016-02-12T07:32:48.046Z,0
2016-02-12T07:33:48.095Z,0
2016-02-12T07:34:48.162Z,0
2016-02-12T07:35:48.195Z,0
2016-02-12T07:36:48.244Z,0
2016-02-12T07:37:48.310Z,0
2016-02-12T07:38:48.360Z,4
2016-02-12T07:39:48.393Z,4
2016-02-12T07:40:48.476Z,0
2016-02-12T07:41:48.525Z,4
2016-02-12T07:42:48.574Z,4
2016-02-12T07:43:48.624Z,4
2016-02-12T07:44:48.658Z,12
2016-02-12T07:45:48.755Z,12
2016-02-12T07:46:48.805Z,16
2016-02-12T07:47:48.824Z,20
2016-02-12T07:48:48.905Z,16
2016-02-12T07:49:48.938Z,20
2016-02-12T07:50:48.973Z,16
2016-02-12T07:51:49.053Z,20
2016-02-12T07:52:49.118Z,16
2016-02-12T07:53:49.137Z,16
2016-02-12T07:54:49.202Z,16
2016-02-12T07:55:49.253Z,16
2016-02-12T07:56:49.317Z,16
2016-02-12T07:57:49.367Z,12
2016-02-12T07:58:49.402Z,12
2016-02-12T07:59:49.482Z,12
2016-02-12T08:00:49.407Z,4
2016-02-12T08:01:49.550Z,12
2016-02-12T08:02:49.630Z,4
2016-02-12T08:03:49.698Z,16
2016-02-12T08:04:49.716Z,12
2016-02-12T08:05:49.781Z,12
2016-02-12T08:06:49.862Z,12
2016-02-12T08:07:49.881Z,12
2016-02-12T08:08:49.977Z,12
2016-02-12T08:09:49.979Z,12
2016-02-12T08:10:50.045Z,8
2016-02-12T08:11:50.110Z,16
2016-02-12T08:12:50.129Z,16
2016-02-12T08:13:50.197Z,16
2016-02-12T08:14:50.294Z,16
2016-02-12T08:15:50.297Z,20
2016-02-12T08:16:50.347Z,28
2016-02-12T08:17:50.428Z,28
2016-02-12T08:18:50.461Z,24
2016-02-12T08:19:50.511Z,20
2016-02-12T08:20:50.579Z,20
2016-02-12T08:21:50.628Z,20
2016-02-12T08:22:50.740Z,16
2016-02-12T08:23:50.746Z,16
2016-02-12T08:24:50.749Z,16
2016-02-12T08:25:50.845Z,16
2016-02-12T08:26:50.895Z,16
2016-02-12T08:27:50.959Z,16
2016-02-12T08:28:50.867Z,16
2016-02-12T08:29:51.047Z,16
2016-02-12T08:30:51.573Z,16
2016-02-12T08:31:51.184Z,12
2016-02-12T08:32:51.234Z,12
2016-02-12T08:33:51.251Z,8
2016-02-12T08:34:51.334Z,12
2016-02-12T08:35:51.336Z,12
2016-02-12T08:36:51.417Z,12
2016-02-12T08:37:51.467Z,12
2016-02-12T08:38:51.500Z,12
2016-02-12T08:39:51.581Z,12
2016-02-12T08:40:51.636Z,8
2016-02-12T08:41:51.685Z,8
2016-02-12T08:42:51.750Z,8
2016-02-12T08:43:51.817Z,12
2016-02-12T08:44:51.819Z,12
2016-02-12T08:45:51.854Z,12
2016-02-12T08:46:51.935Z,16
2016-02-12T08:47:51.984Z,16
2016-02-12T08:48:52.050Z,12
2016-02-12T08:49:52.070Z,12
2016-02-12T08:50:52.135Z,12
2016-02-12T08:51:52.200Z,12
2016-02-12T08:52:52.250Z,12
2016-02-12T08:53:52.300Z,12
2016-02-12T08:54:52.364Z,12
2016-02-12T08:55:52.226Z,12
2016-02-12T08:56:52.417Z,8
2016-02-12T08:57:52.513Z,8
2016-02-12T08:58:52.548Z,12
2016-02-12T08:59:52.613Z,8
2016-02-12T09:00:52.678Z,8
2016-02-12T09:01:52.712Z,8
2016-02-12T09:02:52.731Z,8
2016-02-12T09:03:52.061Z,8
2016-02-12T09:04:52.913Z,12
2016-02-12T09:05:52.884Z,8
2016-02-12T09:06:52.965Z,8
2016-02-12T09:07:53.046Z,8
2016-02-12T09:08:53.064Z,8
2016-02-12T09:09:53.098Z,8
2016-02-12T09:10:53.194Z,8
2016-02-12T09:11:53.244Z,8
2016-02-12T09:12:53.297Z,8
2016-02-12T09:13:53.314Z,8
2016-02-12T09:14:53.380Z,12
2016-02-12T09:15:53.462Z,8
2016-02-12T09:16:53.481Z,12
2016-02-12T09:17:53.530Z,12
2016-02-12T09:18:53.625Z,16
2016-02-12T09:19:53.645Z,16
2016-02-12T09:20:53.679Z,12
2016-02-12T09:21:53.760Z,20
2016-02-12T09:22:53.810Z,24
2016-02-12T09:23:53.845Z,24
2016-02-12T09:24:53.755Z,24
2016-02-12T09:25:53.929Z,16
2016-02-12T09:26:54.026Z,16
2016-02-12T09:27:54.060Z,16
2016-02-12T09:28:54.126Z,16
2016-02-12T09:29:54.172Z,20
2016-02-12T09:30:54.194Z,20
2016-02-12T09:31:54.230Z,20
2016-02-12T09:32:54.299Z,20
2016-02-12T09:33:54.342Z,20
2016-02-12T09:34:54.348Z,20
2016-02-12T09:35:54.441Z,20
2016-02-12T09:36:54.470Z,16
2016-02-12T09:37:54.499Z,16
2016-02-12T09:38:54.559Z,20
2016-02-12T09:39:54.590Z,20
2016-02-12T09:40:54.684Z,20
2016-02-12T09:41:54.702Z,20
2016-02-12T09:42:54.735Z,24
2016-02-12T09:43:54.799Z,20
2016-02-12T09:44:54.879Z,24
2016-02-12T09:45:54.882Z,24
2016-02-12T09:46:54.961Z,24
2016-02-12T09:47:55.010Z,24
2016-02-12T09:48:55.027Z,28
2016-02-12T09:49:55.076Z,28
2016-02-12T09:50:55.157Z,28
2016-02-12T09:52:03.243Z,28
2016-02-12T09:52:55.259Z,28
2016-02-12T09:53:55.293Z,28
2016-02-12T09:54:55.359Z,32
2016-02-12T09:55:55.424Z,28
2016-02-12T09:56:55.427Z,28
2016-02-12T09:57:55.492Z,28
2016-02-12T09:58:55.587Z,24
2016-02-12T09:59:55.606Z,24
2016-02-12T10:00:55.640Z,24
2016-02-12T10:01:55.737Z,20
2016-02-12T10:02:58.800Z,20
2016-02-12T10:03:55.678Z,20
2016-02-12T10:04:55.868Z,16
2016-02-12T10:05:55.903Z,20
2016-02-12T10:06:56.015Z,16
2016-02-12T10:07:56.018Z,16
2016-02-12T10:08:56.068Z,12
2016-02-12T10:09:56.135Z,12
2016-02-12T10:10:56.168Z,16
2016-02-12T10:11:56.219Z,16
2016-02-12T10:12:56.315Z,20
2016-02-12T10:13:56.353Z,20
2016-02-12T10:14:56.403Z,24
2016-02-12T10:15:56.452Z,24
2016-02-12T10:16:56.470Z,20
2016-02-12T10:17:56.552Z,24
2016-02-12T10:18:56.587Z,20
2016-02-12T10:19:56.636Z,24
2016-02-12T10:20:56.732Z,24
2016-02-12T10:21:56.625Z,28
2016-02-12T10:22:56.800Z,28
2016-02-12T10:23:56.850Z,36
2016-02-12T10:24:56.915Z,44
2016-02-12T10:25:56.965Z,52
2016-02-12T10:26:56.998Z,56
2016-02-12T10:27:57.066Z,60
2016-02-12T10:28:57.084Z,64
2016-02-12T10:29:57.180Z,68
2016-02-12T10:30:57.183Z,68
2016-02-12T10:31:57.279Z,72
2016-02-12T10:32:57.329Z,72
2016-02-12T10:33:57.348Z,68
2016-02-12T10:34:57.396Z,72
2016-02-12T10:35:57.478Z,76
2016-02-12T10:36:57.528Z,76
2016-02-12T10:37:57.547Z,76
2016-02-12T10:38:57.629Z,80
2016-02-12T10:39:57.663Z,88
2016-02-12T10:40:57.712Z,92
2016-02-12T10:41:57.778Z,100
2016-02-12T10:42:57.828Z,104
2016-02-12T10:43:57.882Z,104
2016-02-12T10:44:57.962Z,104
2016-02-12T10:45:57.997Z,104
2016-02-12T10:46:58.014Z,108
2016-02-12T10:47:58.102Z,96
2016-02-12T10:48:58.151Z,96
2016-02-12T10:49:58.153Z,104
2016-02-12T10:50:58.235Z,84
2016-02-12T10:51:58.300Z,96
2016-02-12T10:52:58.334Z,88
2016-02-12T10:53:58.368Z,96
2016-02-12T10:54:58.433Z,108
2016-02-12T10:55:58.498Z,108
2016-02-12T10:56:58.564Z,120
2016-02-12T10:57:58.581Z,108
2016-02-12T10:58:58.647Z,84
2016-02-12T10:59:58.712Z,88
2016-02-12T11:00:58.730Z,92
2016-02-12T11:01:58.780Z,84
2016-02-12T11:02:58.861Z,96
2016-02-12T11:03:58.910Z,100
2016-02-12T11:04:58.946Z,96
2016-02-12T11:05:59.026Z,88
2016-02-12T11:06:59.060Z,84
2016-02-12T11:07:59.109Z,72
2016-02-12T11:08:59.143Z,80
2016-02-12T11:09:59.177Z,68
2016-02-12T11:10:59.305Z,72
2016-02-12T11:11:59.308Z,76
2016-02-12T11:12:59.357Z,64
2016-02-12T11:13:59.271Z,64
2016-02-12T11:14:59.476Z,64
2016-02-12T11:15:59.494Z,60
2016-02-12T11:16:59.576Z,64
2016-02-12T11:17:59.625Z,64
2016-02-12T11:18:59.659Z,64
2016-02-12T11:19:59.739Z,64
2016-02-12T11:20:59.774Z,72
2016-02-12T11:21:59.855Z,76
2016-02-12T11:22:59.874Z,80
2016-02-12T11:23:59.908Z,84
2016-02-12T11:24:59.988Z,108
2016-02-12T11:26:00.038Z,88
2016-02-12T11:27:00.073Z,68
2016-02-12T11:28:00.137Z,56
2016-02-12T11:29:00.218Z,48
2016-02-12T11:30:00.225Z,48
2016-02-12T11:31:00.119Z,52
2016-02-12T11:32:00.356Z,64
2016-02-12T11:33:00.390Z,76
2016-02-12T11:34:00.470Z,76
2016-02-12T11:35:00.473Z,72
2016-02-12T11:36:00.570Z,68
2016-02-12T11:37:00.603Z,44
2016-02-12T11:38:00.638Z,52
2016-02-12T11:39:00.690Z,52
2016-02-12T11:40:00.614Z,52
2016-02-12T11:41:00.774Z,44
2016-02-12T11:42:00.839Z,44
2016-02-12T11:43:00.920Z,56
2016-02-12T11:44:00.969Z,60
2016-02-12T11:45:01.007Z,60
2016-02-12T11:46:01.088Z,64
2016-02-12T11:47:01.107Z,60
2016-02-12T11:48:01.188Z,64
2016-02-12T11:49:01.207Z,68
2016-02-12T11:50:01.240Z,64
2016-02-12T11:51:01.353Z,68
2016-02-12T11:52:01.372Z,68
2016-02-12T11:53:01.405Z,64
2016-02-12T11:54:01.346Z,64
2016-02-12T11:55:01.521Z,60
2016-02-12T11:56:01.555Z,44
2016-02-12T11:57:01.637Z,40
2016-02-12T11:58:01.702Z,48
2016-02-12T11:59:01.739Z,48
2016-02-12T12:00:01.803Z,44
2016-02-12T12:01:01.822Z,52
2016-02-12T12:02:01.903Z,48
2016-02-12T12:03:01.937Z,60
2016-02-12T12:04:01.970Z,60
2016-02-12T12:05:02.052Z,64
2016-02-12T12:06:02.102Z,64
2016-02-12T12:07:02.136Z,60
2016-02-12T12:08:02.202Z,64
2016-02-12T12:09:02.283Z,64
2016-02-12T12:10:02.286Z,64
2016-02-12T12:11:02.366Z,64
2016-02-12T12:12:02.385Z,44
2016-02-12T12:13:02.465Z,40
2016-02-12T12:14:02.515Z,36
2016-02-12T12:15:02.549Z,36
2016-02-12T12:16:02.631Z,40
2016-02-12T12:17:02.698Z,52
2016-02-12T12:18:02.715Z,52
2016-02-12T12:19:02.765Z,56
2016-02-12T12:20:02.846Z,52
2016-02-12T12:21:02.849Z,60
2016-02-12T12:22:02.914Z,56
2016-02-12T12:23:02.995Z,56
2016-02-12T12:24:03.014Z,52
2016-02-12T12:25:03.048Z,52
2016-02-12T12:26:03.129Z,52
2016-02-12T12:27:03.178Z,36
2016-02-12T12:28:03.212Z,36
2016-02-12T12:29:03.293Z,32
2016-02-12T12:30:03.326Z,36
2016-02-12T12:31:03.362Z,48
2016-02-12T12:32:03.458Z,52
2016-02-12T12:33:03.492Z,52
2016-02-12T12:34:03.496Z,60
2016-02-12T12:35:03.576Z,44
2016-02-12T12:36:03.641Z,64
2016-02-12T12:37:03.676Z,72
2016-02-12T12:38:03.757Z,68
2016-02-12T12:39:03.790Z,60
2016-02-12T12:40:03.871Z,44
2016-02-12T12:41:03.904Z,44
2016-02-12T12:42:03.912Z,44
2016-02-12T12:43:03.993Z,64
2016-02-12T12:44:04.059Z,60
2016-02-12T12:45:04.092Z,60
2016-02-12T12:46:04.159Z,64
2016-02-12T12:47:04.224Z,60
2016-02-12T12:48:04.242Z,52
2016-02-12T12:49:04.276Z,48
2016-02-12T12:50:04.357Z,48
2016-02-12T12:51:04.391Z,48
2016-02-12T12:52:04.488Z,44
2016-02-12T12:53:04.491Z,44
2016-02-12T12:54:04.557Z,44
2016-02-12T12:55:04.621Z,44
2016-02-12T12:56:04.655Z,40
2016-02-12T12:57:04.690Z,40
2016-02-12T12:58:04.785Z,44
2016-02-12T12:59:04.820Z,44
2016-02-12T13:00:04.856Z,44
2016-02-12T13:01:04.952Z,44
2016-02-12T13:02:04.986Z,44
2016-02-12T13:03:05.020Z,44
2016-02-12T13:04:05.054Z,44
2016-02-12T13:05:05.104Z,40
2016-02-12T13:06:05.184Z,40
2016-02-12T13:07:05.234Z,44
2016-02-12T13:08:05.268Z,40
2016-02-12T13:09:05.350Z,44
2016-02-12T13:10:05.385Z,40
2016-02-12T13:11:05.403Z,40
2016-02-12T13:12:05.484Z,44
2016-02-12T13:13:05.566Z,44
2016-02-12T13:14:05.568Z,28
2016-02-12T13:15:05.650Z,44
2016-02-12T13:16:05.684Z,40
2016-02-12T13:17:05.748Z,44
2016-02-12T13:18:05.798Z,48
2016-02-12T13:19:05.817Z,48
2016-02-12T13:20:05.914Z,44
2016-02-12T13:21:05.979Z,48
2016-02-12T13:22:05.998Z,40
2016-02-12T13:23:06.062Z,44
2016-02-12T13:24:06.112Z,48
2016-02-12T13:25:06.131Z,52
2016-02-12T13:26:06.181Z,56
2016-02-12T13:27:06.276Z,40
2016-02-12T13:28:06.295Z,48
2016-02-12T13:29:06.378Z,52
2016-02-12T13:30:06.396Z,44
2016-02-12T13:31:06.461Z,40
2016-02-12T13:32:06.526Z,52
2016-02-12T13:33:06.560Z,40
2016-02-12T13:34:06.594Z,40
2016-02-12T13:35:06.674Z,52
2016-02-12T13:36:06.724Z,72
2016-02-12T13:37:06.759Z,44
2016-02-12T13:38:06.855Z,60
2016-02-12T13:39:06.889Z,88
2016-02-12T13:40:06.908Z,96
2016-02-12T13:41:07.036Z,88
2016-02-12T13:42:07.023Z,92
2016-02-12T13:43:07.088Z,84
2016-02-12T13:44:07.153Z,72
2016-02-12T13:45:07.156Z,60
2016-02-12T13:46:07.099Z,32
2016-02-12T13:47:07.274Z,32
2016-02-12T13:48:07.324Z,36
2016-02-12T13:49:07.419Z,52
2016-02-12T13:50:07.454Z,60
2016-02-12T13:51:07.503Z,28
2016-02-12T13:52:07.537Z,48
2016-02-12T13:53:07.634Z,36
2016-02-12T13:54:07.636Z,28
2016-02-12T13:55:07.719Z,24
2016-02-12T13:56:07.737Z,52
2016-02-12T13:57:07.849Z,24
2016-02-12T13:58:07.867Z,24
2016-02-12T13:59:07.886Z,24
2016-02-12T14:00:07.201Z,28
2016-02-12T14:01:08.047Z,28
2016-02-12T14:02:08.034Z,48
2016-02-12T14:03:08.117Z,28
2016-02-12T14:04:08.166Z,28
2016-02-12T14:05:08.201Z,24
2016-02-12T14:06:08.265Z,24
2016-02-12T14:07:08.331Z,24
2016-02-12T14:08:08.364Z,24
2016-02-12T14:09:08.398Z,24
2016-02-12T14:10:08.495Z,28
2016-02-12T14:11:08.514Z,28
2016-02-12T14:12:08.547Z,28
2016-02-12T14:13:08.659Z,24
2016-02-12T14:14:08.677Z,60
2016-02-12T14:15:08.712Z,64
2016-02-12T14:16:08.777Z,64
2016-02-12T14:17:08.874Z,64
2016-02-12T14:18:08.863Z,60
2016-02-12T14:19:08.944Z,60
2016-02-12T14:20:09.008Z,60
2016-02-12T14:21:09.058Z,60
2016-02-12T14:22:09.092Z,64
2016-02-12T14:23:09.127Z,60
2016-02-12T14:24:09.191Z,60
2016-02-12T14:25:09.257Z,56
2016-02-12T14:26:09.275Z,56
2016-02-12T14:27:09.340Z,56
2016-02-12T14:28:09.405Z,52
2016-02-12T14:29:09.423Z,52
2016-02-12T14:30:09.505Z,56
2016-02-12T14:31:09.586Z,56
2016-02-12T14:32:09.588Z,56
2016-02-12T14:33:09.654Z,60